Germantown, Kentucky
Current Conditions -  °F | °C
As of 7:15 AM on Monday 24 Nov 2014 (Local Time) from KFGX Reporting Station
Broken Clouds Broken Clouds  
Wind Chill: 59°   Ceiling: 7000
Heat Index: 59°   Visibility: 10mi
Dew Point: 53°   Wind: 17mph
Humidity: 79%   Direction: 200°SSW
Pressure: 29.43"   Gusts: 26mph
Location:  38.65°N, 83.96°W
Report Text: KFGX 241215Z AUTO 20015G23KT 10SM SCT036 SCT044 BKN070 15/12 A2943 RMK AO2 T01510115
Loading
Personal Weather Stations






























Interactive Weather Map New forecast layout! Learn more

10-Day Weather Forecast

Advertisements
Track Severe Weather on mobile